sensor_id;sensor_type;location;lat;lon;timestamp;P1;durP1;ratioP1;P2;durP2;ratioP2
57752;SDS011;43583;53.132;6.574;2023-12-29T00:01:20;7.93;;;0.45;;
57752;SDS011;43583;53.132;6.574;2023-12-29T00:03:46;8.43;;;1.13;;
57752;SDS011;43583;53.132;6.574;2023-12-29T00:06:11;3.35;;;0.68;;
57752;SDS011;43583;53.132;6.574;2023-12-29T00:08:37;7.22;;;1.08;;
57752;SDS011;43583;53.132;6.574;2023-12-29T00:11:03;8.05;;;1.67;;
57752;SDS011;43583;53.132;6.574;2023-12-29T00:13:29;7.15;;;1.33;;
57752;SDS011;43583;53.132;6.574;2023-12-29T00:15:55;6.88;;;0.60;;
57752;SDS011;43583;53.132;6.574;2023-12-29T00:18:21;6.95;;;1.08;;
57752;SDS011;43583;53.132;6.574;2023-12-29T00:20:47;8.10;;;0.52;;
57752;SDS011;43583;53.132;6.574;2023-12-29T00:23:14;6.88;;;0.30;;
57752;SDS011;43583;53.132;6.574;2023-12-29T00:25:40;4.93;;;1.02;;
57752;SDS011;43583;53.132;6.574;2023-12-29T00:28:05;7.18;;;0.60;;
57752;SDS011;43583;53.132;6.574;2023-12-29T00:30:31;13.07;;;1.27;;
57752;SDS011;43583;53.132;6.574;2023-12-29T00:32:57;6.90;;;0.77;;
57752;SDS011;43583;53.132;6.574;2023-12-29T00:35:23;4.28;;;0.88;;
57752;SDS011;43583;53.132;6.574;2023-12-29T00:37:49;9.27;;;0.80;;
57752;SDS011;43583;53.132;6.574;2023-12-29T00:40:16;8.68;;;0.77;;
57752;SDS011;43583;53.132;6.574;2023-12-29T00:42:41;6.00;;;0.80;;
57752;SDS011;43583;53.132;6.574;2023-12-29T00:45:07;6.88;;;1.30;;
57752;SDS011;43583;53.132;6.574;2023-12-29T00:47:33;4.88;;;0.63;;
57752;SDS011;43583;53.132;6.574;2023-12-29T00:50:00;7.68;;;1.10;;
57752;SDS011;43583;53.132;6.574;2023-12-29T00:52:26;8.45;;;0.75;;
57752;SDS011;43583;53.132;6.574;2023-12-29T00:54:52;7.25;;;0.93;;
57752;SDS011;43583;53.132;6.574;2023-12-29T00:57:18;7.90;;;0.82;;
57752;SDS011;43583;53.132;6.574;2023-12-29T00:59:46;7.72;;;0.88;;
57752;SDS011;43583;53.132;6.574;2023-12-29T01:02:12;9.27;;;0.80;;
57752;SDS011;43583;53.132;6.574;2023-12-29T01:04:38;6.32;;;1.83;;
57752;SDS011;43583;53.132;6.574;2023-12-29T01:07:04;10.73;;;0.75;;
57752;SDS011;43583;53.132;6.574;2023-12-29T01:09:30;4.65;;;0.80;;
57752;SDS011;43583;53.132;6.574;2023-12-29T01:11:57;7.78;;;0.63;;
57752;SDS011;43583;53.132;6.574;2023-12-29T01:14:22;4.65;;;0.63;;
57752;SDS011;43583;53.132;6.574;2023-12-29T01:16:48;4.72;;;1.33;;
57752;SDS011;43583;53.132;6.574;2023-12-29T01:19:14;6.57;;;1.08;;
57752;SDS011;43583;53.132;6.574;2023-12-29T01:21:40;9.77;;;1.02;;
57752;SDS011;43583;53.132;6.574;2023-12-29T01:24:05;11.75;;;1.90;;
57752;SDS011;43583;53.132;6.574;2023-12-29T01:26:36;7.65;;;1.02;;
57752;SDS011;43583;53.132;6.574;2023-12-29T01:29:03;10.40;;;1.05;;
57752;SDS011;43583;53.132;6.574;2023-12-29T01:31:30;11.07;;;1.15;;
57752;SDS011;43583;53.132;6.574;2023-12-29T01:33:56;13.23;;;1.67;;
57752;SDS011;43583;53.132;6.574;2023-12-29T01:36:22;10.57;;;0.93;;
57752;SDS011;43583;53.132;6.574;2023-12-29T01:38:47;8.85;;;1.33;;
57752;SDS011;43583;53.132;6.574;2023-12-29T01:41:13;10.20;;;1.33;;
57752;SDS011;43583;53.132;6.574;2023-12-29T01:46:30;8.60;;;0.88;;
57752;SDS011;43583;53.132;6.574;2023-12-29T01:48:58;3.63;;;0.68;;
57752;SDS011;43583;53.132;6.574;2023-12-29T01:51:24;2.95;;;0.20;;
57752;SDS011;43583;53.132;6.574;2023-12-29T01:53:52;3.78;;;0.32;;
57752;SDS011;43583;53.132;6.574;2023-12-29T01:56:19;3.50;;;0.95;;
57752;SDS011;43583;53.132;6.574;2023-12-29T01:58:45;4.63;;;0.38;;
57752;SDS011;43583;53.132;6.574;2023-12-29T02:01:14;3.00;;;0.20;;
57752;SDS011;43583;53.132;6.574;2023-12-29T02:03:42;5.72;;;0.10;;
57752;SDS011;43583;53.132;6.574;2023-12-29T02:06:09;3.03;;;0.10;;
57752;SDS011;43583;53.132;6.574;2023-12-29T02:08:36;2.97;;;0.30;;
57752;SDS011;43583;53.132;6.574;2023-12-29T02:11:03;2.22;;;0.00;;
57752;SDS011;43583;53.132;6.574;2023-12-29T02:13:29;0.65;;;0.32;;
57752;SDS011;43583;53.132;6.574;2023-12-29T02:15:55;3.20;;;0.65;;
57752;SDS011;43583;53.132;6.574;2023-12-29T02:18:32;4.75;;;0.45;;
57752;SDS011;43583;53.132;6.574;2023-12-29T02:20:59;0.93;;;0.10;;
57752;SDS011;43583;53.132;6.574;2023-12-29T02:23:27;4.90;;;0.20;;
57752;SDS011;43583;53.132;6.574;2023-12-29T02:25:53;5.07;;;0.10;;
57752;SDS011;43583;53.132;6.574;2023-12-29T02:28:24;3.78;;;0.13;;
57752;SDS011;43583;53.132;6.574;2023-12-29T02:30:53;6.20;;;0.30;;
57752;SDS011;43583;53.132;6.574;2023-12-29T02:33:25;5.10;;;1.00;;
57752;SDS011;43583;53.132;6.574;2023-12-29T02:35:53;7.57;;;0.68;;
57752;SDS011;43583;53.132;6.574;2023-12-29T02:38:24;3.55;;;0.50;;
57752;SDS011;43583;53.132;6.574;2023-12-29T02:40:53;4.85;;;0.47;;
57752;SDS011;43583;53.132;6.574;2023-12-29T02:43:21;8.85;;;0.73;;
57752;SDS011;43583;53.132;6.574;2023-12-29T02:45:46;7.90;;;1.02;;
57752;SDS011;43583;53.132;6.574;2023-12-29T02:48:12;7.93;;;0.40;;
57752;SDS011;43583;53.132;6.574;2023-12-29T02:50:38;7.00;;;1.63;;
57752;SDS011;43583;53.132;6.574;2023-12-29T02:53:04;11.07;;;0.70;;
57752;SDS011;43583;53.132;6.574;2023-12-29T02:55:30;8.98;;;1.42;;
57752;SDS011;43583;53.132;6.574;2023-12-29T02:57:55;10.80;;;0.98;;
57752;SDS011;43583;53.132;6.574;2023-12-29T03:00:21;13.02;;;1.27;;
57752;SDS011;43583;53.132;6.574;2023-12-29T03:02:46;16.25;;;1.17;;
57752;SDS011;43583;53.132;6.574;2023-12-29T03:05:12;11.93;;;1.50;;
57752;SDS011;43583;53.132;6.574;2023-12-29T03:07:38;14.85;;;2.17;;
57752;SDS011;43583;53.132;6.574;2023-12-29T03:10:05;8.68;;;1.60;;
57752;SDS011;43583;53.132;6.574;2023-12-29T03:12:32;15.73;;;2.15;;
57752;SDS011;43583;53.132;6.574;2023-12-29T03:14:57;13.38;;;1.70;;
57752;SDS011;43583;53.132;6.574;2023-12-29T03:17:23;8.35;;;1.13;;
57752;SDS011;43583;53.132;6.574;2023-12-29T03:19:48;10.40;;;1.67;;
57752;SDS011;43583;53.132;6.574;2023-12-29T03:22:14;9.73;;;1.70;;
57752;SDS011;43583;53.132;6.574;2023-12-29T03:24:40;12.63;;;1.20;;
57752;SDS011;43583;53.132;6.574;2023-12-29T03:27:06;11.98;;;1.15;;
57752;SDS011;43583;53.132;6.574;2023-12-29T03:29:32;20.58;;;2.58;;
57752;SDS011;43583;53.132;6.574;2023-12-29T03:31:57;10.65;;;1.60;;
57752;SDS011;43583;53.132;6.574;2023-12-29T03:34:23;12.57;;;1.02;;
57752;SDS011;43583;53.132;6.574;2023-12-29T03:36:48;11.48;;;1.02;;
57752;SDS011;43583;53.132;6.574;2023-12-29T03:39:14;9.05;;;1.58;;
57752;SDS011;43583;53.132;6.574;2023-12-29T03:41:39;12.38;;;1.00;;
57752;SDS011;43583;53.132;6.574;2023-12-29T03:44:05;14.90;;;2.17;;
57752;SDS011;43583;53.132;6.574;2023-12-29T03:46:31;16.52;;;1.42;;
57752;SDS011;43583;53.132;6.574;2023-12-29T03:48:57;20.13;;;1.50;;
57752;SDS011;43583;53.132;6.574;2023-12-29T03:51:23;19.02;;;1.73;;
57752;SDS011;43583;53.132;6.574;2023-12-29T03:53:49;16.40;;;2.03;;
57752;SDS011;43583;53.132;6.574;2023-12-29T03:56:15;14.15;;;1.25;;
57752;SDS011;43583;53.132;6.574;2023-12-29T03:58:45;13.95;;;2.22;;
57752;SDS011;43583;53.132;6.574;2023-12-29T04:01:14;16.73;;;2.30;;
57752;SDS011;43583;53.132;6.574;2023-12-29T04:03:41;21.35;;;2.08;;
57752;SDS011;43583;53.132;6.574;2023-12-29T04:06:07;27.02;;;2.55;;
57752;SDS011;43583;53.132;6.574;2023-12-29T04:08:34;20.20;;;3.08;;
57752;SDS011;43583;53.132;6.574;2023-12-29T04:11:00;22.75;;;2.30;;
57752;SDS011;43583;53.132;6.574;2023-12-29T04:13:26;16.23;;;2.30;;
57752;SDS011;43583;53.132;6.574;2023-12-29T04:15:52;10.95;;;1.33;;
57752;SDS011;43583;53.132;6.574;2023-12-29T04:18:19;15.07;;;1.55;;
57752;SDS011;43583;53.132;6.574;2023-12-29T04:20:46;17.63;;;1.50;;
57752;SDS011;43583;53.132;6.574;2023-12-29T04:23:11;13.48;;;2.15;;
57752;SDS011;43583;53.132;6.574;2023-12-29T04:25:37;15.05;;;1.88;;
57752;SDS011;43583;53.132;6.574;2023-12-29T04:28:03;15.20;;;2.63;;
57752;SDS011;43583;53.132;6.574;2023-12-29T04:30:28;13.27;;;2.30;;
57752;SDS011;43583;53.132;6.574;2023-12-29T04:32:54;13.35;;;1.23;;
57752;SDS011;43583;53.132;6.574;2023-12-29T04:35:20;13.98;;;1.70;;
57752;SDS011;43583;53.132;6.574;2023-12-29T04:37:46;14.50;;;2.63;;
57752;SDS011;43583;53.132;6.574;2023-12-29T04:40:12;21.48;;;1.63;;
57752;SDS011;43583;53.132;6.574;2023-12-29T04:42:38;12.23;;;1.75;;
57752;SDS011;43583;53.132;6.574;2023-12-29T04:45:04;25.42;;;1.10;;
57752;SDS011;43583;53.132;6.574;2023-12-29T04:47:30;11.25;;;0.90;;
57752;SDS011;43583;53.132;6.574;2023-12-29T04:49:56;12.18;;;1.20;;
57752;SDS011;43583;53.132;6.574;2023-12-29T04:52:21;13.63;;;2.05;;
57752;SDS011;43583;53.132;6.574;2023-12-29T04:54:47;13.27;;;1.90;;
57752;SDS011;43583;53.132;6.574;2023-12-29T04:57:13;13.43;;;1.88;;
57752;SDS011;43583;53.132;6.574;2023-12-29T04:59:38;13.68;;;2.28;;
57752;SDS011;43583;53.132;6.574;2023-12-29T05:02:04;14.10;;;1.25;;
57752;SDS011;43583;53.132;6.574;2023-12-29T05:04:30;22.60;;;3.78;;
57752;SDS011;43583;53.132;6.574;2023-12-29T05:06:55;15.65;;;1.52;;
57752;SDS011;43583;53.132;6.574;2023-12-29T05:09:21;19.95;;;1.65;;
57752;SDS011;43583;53.132;6.574;2023-12-29T05:11:47;11.90;;;2.35;;
57752;SDS011;43583;53.132;6.574;2023-12-29T05:14:13;22.10;;;2.33;;
57752;SDS011;43583;53.132;6.574;2023-12-29T05:16:38;18.15;;;2.75;;
57752;SDS011;43583;53.132;6.574;2023-12-29T05:19:05;19.42;;;2.25;;
57752;SDS011;43583;53.132;6.574;2023-12-29T05:21:30;20.67;;;2.45;;
57752;SDS011;43583;53.132;6.574;2023-12-29T05:23:56;9.60;;;1.45;;
57752;SDS011;43583;53.132;6.574;2023-12-29T05:26:22;11.23;;;2.58;;
57752;SDS011;43583;53.132;6.574;2023-12-29T05:28:48;12.52;;;2.47;;
57752;SDS011;43583;53.132;6.574;2023-12-29T05:31:13;19.13;;;2.13;;
57752;SDS011;43583;53.132;6.574;2023-12-29T05:33:39;16.80;;;1.25;;
57752;SDS011;43583;53.132;6.574;2023-12-29T05:36:08;14.93;;;1.20;;
57752;SDS011;43583;53.132;6.574;2023-12-29T05:38:35;14.88;;;2.17;;
57752;SDS011;43583;53.132;6.574;2023-12-29T05:41:02;13.45;;;1.65;;
57752;SDS011;43583;53.132;6.574;2023-12-29T05:43:30;19.05;;;2.30;;
57752;SDS011;43583;53.132;6.574;2023-12-29T05:45:57;17.83;;;1.33;;
57752;SDS011;43583;53.132;6.574;2023-12-29T05:48:23;7.45;;;1.02;;
57752;SDS011;43583;53.132;6.574;2023-12-29T05:50:49;15.50;;;2.40;;
57752;SDS011;43583;53.132;6.574;2023-12-29T05:53:15;15.38;;;1.13;;
57752;SDS011;43583;53.132;6.574;2023-12-29T05:55:42;16.17;;;1.98;;
57752;SDS011;43583;53.132;6.574;2023-12-29T05:58:08;11.05;;;1.48;;
57752;SDS011;43583;53.132;6.574;2023-12-29T06:00:35;14.00;;;1.25;;
57752;SDS011;43583;53.132;6.574;2023-12-29T06:03:04;12.38;;;0.98;;
57752;SDS011;43583;53.132;6.574;2023-12-29T06:05:30;18.27;;;2.80;;
57752;SDS011;43583;53.132;6.574;2023-12-29T06:07:57;10.25;;;0.93;;
57752;SDS011;43583;53.132;6.574;2023-12-29T06:10:22;7.55;;;1.13;;
57752;SDS011;43583;53.132;6.574;2023-12-29T06:12:49;14.82;;;1.70;;
57752;SDS011;43583;53.132;6.574;2023-12-29T06:15:14;14.80;;;1.05;;
57752;SDS011;43583;53.132;6.574;2023-12-29T06:17:40;18.08;;;1.52;;
57752;SDS011;43583;53.132;6.574;2023-12-29T06:20:07;10.48;;;1.27;;
57752;SDS011;43583;53.132;6.574;2023-12-29T06:22:34;14.93;;;1.52;;
57752;SDS011;43583;53.132;6.574;2023-12-29T06:25:05;16.40;;;2.53;;
57752;SDS011;43583;53.132;6.574;2023-12-29T06:27:33;17.35;;;1.92;;
57752;SDS011;43583;53.132;6.574;2023-12-29T06:30:02;11.00;;;0.68;;
57752;SDS011;43583;53.132;6.574;2023-12-29T06:32:29;8.98;;;2.28;;
57752;SDS011;43583;53.132;6.574;2023-12-29T06:34:55;16.13;;;1.58;;
57752;SDS011;43583;53.132;6.574;2023-12-29T06:37:20;13.15;;;0.80;;
57752;SDS011;43583;53.132;6.574;2023-12-29T06:39:46;14.60;;;1.33;;
57752;SDS011;43583;53.132;6.574;2023-12-29T06:42:11;10.23;;;1.50;;
57752;SDS011;43583;53.132;6.574;2023-12-29T06:44:37;13.63;;;1.42;;
57752;SDS011;43583;53.132;6.574;2023-12-29T06:47:03;13.07;;;2.92;;
57752;SDS011;43583;53.132;6.574;2023-12-29T06:49:31;18.42;;;1.25;;
57752;SDS011;43583;53.132;6.574;2023-12-29T06:51:58;25.27;;;1.80;;
57752;SDS011;43583;53.132;6.574;2023-12-29T06:54:24;12.32;;;1.25;;
57752;SDS011;43583;53.132;6.574;2023-12-29T06:56:50;13.07;;;1.23;;
57752;SDS011;43583;53.132;6.574;2023-12-29T06:59:15;8.93;;;1.50;;
57752;SDS011;43583;53.132;6.574;2023-12-29T07:01:43;14.20;;;1.95;;
57752;SDS011;43583;53.132;6.574;2023-12-29T07:04:09;17.48;;;1.42;;
57752;SDS011;43583;53.132;6.574;2023-12-29T07:06:38;16.33;;;2.03;;
57752;SDS011;43583;53.132;6.574;2023-12-29T07:09:04;20.25;;;0.93;;
57752;SDS011;43583;53.132;6.574;2023-12-29T07:11:30;17.83;;;1.45;;
57752;SDS011;43583;53.132;6.574;2023-12-29T07:13:56;16.15;;;1.35;;
57752;SDS011;43583;53.132;6.574;2023-12-29T07:16:21;21.13;;;1.17;;
57752;SDS011;43583;53.132;6.574;2023-12-29T07:18:47;18.05;;;1.58;;
57752;SDS011;43583;53.132;6.574;2023-12-29T07:21:14;15.85;;;1.52;;
57752;SDS011;43583;53.132;6.574;2023-12-29T07:23:41;15.52;;;2.38;;
57752;SDS011;43583;53.132;6.574;2023-12-29T07:26:07;19.60;;;2.38;;
57752;SDS011;43583;53.132;6.574;2023-12-29T07:28:33;18.88;;;0.95;;
57752;SDS011;43583;53.132;6.574;2023-12-29T07:30:59;21.63;;;1.73;;
57752;SDS011;43583;53.132;6.574;2023-12-29T07:33:25;14.88;;;1.20;;
57752;SDS011;43583;53.132;6.574;2023-12-29T07:35:51;16.25;;;1.75;;
57752;SDS011;43583;53.132;6.574;2023-12-29T07:38:16;10.40;;;0.95;;
57752;SDS011;43583;53.132;6.574;2023-12-29T07:40:42;14.98;;;1.30;;
57752;SDS011;43583;53.132;6.574;2023-12-29T07:43:08;16.92;;;2.53;;
57752;SDS011;43583;53.132;6.574;2023-12-29T07:45:33;13.30;;;1.17;;
57752;SDS011;43583;53.132;6.574;2023-12-29T07:47:59;15.40;;;2.58;;
57752;SDS011;43583;53.132;6.574;2023-12-29T07:50:27;15.10;;;2.28;;
57752;SDS011;43583;53.132;6.574;2023-12-29T07:52:52;14.45;;;1.38;;
57752;SDS011;43583;53.132;6.574;2023-12-29T07:55:18;16.15;;;3.28;;
57752;SDS011;43583;53.132;6.574;2023-12-29T07:57:43;16.60;;;1.92;;
57752;SDS011;43583;53.132;6.574;2023-12-29T08:00:11;13.95;;;1.15;;
57752;SDS011;43583;53.132;6.574;2023-12-29T08:02:38;15.05;;;3.13;;
57752;SDS011;43583;53.132;6.574;2023-12-29T08:05:03;11.68;;;2.72;;
57752;SDS011;43583;53.132;6.574;2023-12-29T08:07:29;26.35;;;3.13;;
57752;SDS011;43583;53.132;6.574;2023-12-29T08:09:54;16.45;;;2.00;;
57752;SDS011;43583;53.132;6.574;2023-12-29T08:38:29;18.27;;;1.55;;
57752;SDS011;43583;53.132;6.574;2023-12-29T08:40:59;21.83;;;1.95;;
57752;SDS011;43583;53.132;6.574;2023-12-29T08:48:32;15.77;;;1.52;;
57752;SDS011;43583;53.132;6.574;2023-12-29T09:25:43;17.52;;;1.48;;
57752;SDS011;43583;53.132;6.574;2023-12-29T09:51:27;13.07;;;2.00;;
57752;SDS011;43583;53.132;6.574;2023-12-29T09:53:53;15.32;;;0.68;;
57752;SDS011;43583;53.132;6.574;2023-12-29T10:00:24;9.77;;;0.70;;
57752;SDS011;43583;53.132;6.574;2023-12-29T10:19:20;20.13;;;1.85;;
57752;SDS011;43583;53.132;6.574;2023-12-29T10:25:15;14.35;;;2.25;;
57752;SDS011;43583;53.132;6.574;2023-12-29T10:27:40;9.93;;;0.80;;
57752;SDS011;43583;53.132;6.574;2023-12-29T10:30:07;14.98;;;2.53;;
57752;SDS011;43583;53.132;6.574;2023-12-29T10:32:36;8.23;;;0.50;;
57752;SDS011;43583;53.132;6.574;2023-12-29T10:35:08;9.82;;;1.15;;
57752;SDS011;43583;53.132;6.574;2023-12-29T10:37:35;8.65;;;1.20;;
57752;SDS011;43583;53.132;6.574;2023-12-29T10:40:01;9.10;;;1.55;;
57752;SDS011;43583;53.132;6.574;2023-12-29T10:42:27;12.93;;;0.85;;
57752;SDS011;43583;53.132;6.574;2023-12-29T10:45:04;9.20;;;1.77;;
57752;SDS011;43583;53.132;6.574;2023-12-29T10:47:33;9.32;;;1.20;;
57752;SDS011;43583;53.132;6.574;2023-12-29T10:50:04;8.02;;;0.57;;
57752;SDS011;43583;53.132;6.574;2023-12-29T10:52:31;7.82;;;0.52;;
57752;SDS011;43583;53.132;6.574;2023-12-29T10:55:04;9.90;;;1.20;;
57752;SDS011;43583;53.132;6.574;2023-12-29T10:57:35;12.80;;;0.63;;
57752;SDS011;43583;53.132;6.574;2023-12-29T11:00:01;7.07;;;0.60;;
57752;SDS011;43583;53.132;6.574;2023-12-29T11:02:28;7.30;;;1.20;;
57752;SDS011;43583;53.132;6.574;2023-12-29T11:05:04;9.27;;;0.38;;
57752;SDS011;43583;53.132;6.574;2023-12-29T11:10:04;8.30;;;1.38;;
57752;SDS011;43583;53.132;6.574;2023-12-29T11:12:32;7.85;;;1.00;;
57752;SDS011;43583;53.132;6.574;2023-12-29T11:14:59;11.75;;;1.15;;
57752;SDS011;43583;53.132;6.574;2023-12-29T11:17:27;11.90;;;0.95;;
57752;SDS011;43583;53.132;6.574;2023-12-29T11:19:55;8.88;;;0.63;;
57752;SDS011;43583;53.132;6.574;2023-12-29T11:22:22;6.43;;;0.30;;
57752;SDS011;43583;53.132;6.574;2023-12-29T11:24:49;11.02;;;1.05;;
57752;SDS011;43583;53.132;6.574;2023-12-29T11:27:15;12.02;;;1.17;;
57752;SDS011;43583;53.132;6.574;2023-12-29T11:29:41;14.10;;;1.35;;
57752;SDS011;43583;53.132;6.574;2023-12-29T11:32:11;8.27;;;0.70;;
57752;SDS011;43583;53.132;6.574;2023-12-29T11:34:42;10.25;;;0.75;;
57752;SDS011;43583;53.132;6.574;2023-12-29T11:40:23;6.45;;;0.47;;
57752;SDS011;43583;53.132;6.574;2023-12-29T11:42:54;6.63;;;0.50;;
57752;SDS011;43583;53.132;6.574;2023-12-29T11:45:28;7.45;;;0.40;;
57752;SDS011;43583;53.132;6.574;2023-12-29T11:47:56;7.53;;;0.95;;
57752;SDS011;43583;53.132;6.574;2023-12-29T11:50:28;6.70;;;0.50;;
57752;SDS011;43583;53.132;6.574;2023-12-29T11:52:55;4.57;;;1.17;;
57752;SDS011;43583;53.132;6.574;2023-12-29T11:55:21;6.00;;;0.75;;
57752;SDS011;43583;53.132;6.574;2023-12-29T11:58:00;5.85;;;0.43;;
57752;SDS011;43583;53.132;6.574;2023-12-29T12:00:42;5.13;;;0.68;;
57752;SDS011;43583;53.132;6.574;2023-12-29T12:03:27;9.68;;;0.47;;
57752;SDS011;43583;53.132;6.574;2023-12-29T12:05:56;6.07;;;0.68;;
57752;SDS011;43583;53.132;6.574;2023-12-29T12:10:52;8.75;;;0.65;;
57752;SDS011;43583;53.132;6.574;2023-12-29T12:16:09;4.15;;;0.55;;
57752;SDS011;43583;53.132;6.574;2023-12-29T12:18:35;7.32;;;0.63;;
57752;SDS011;43583;53.132;6.574;2023-12-29T12:21:03;7.47;;;1.88;;
57752;SDS011;43583;53.132;6.574;2023-12-29T12:23:30;10.50;;;0.30;;
57752;SDS011;43583;53.132;6.574;2023-12-29T12:25:58;9.95;;;0.28;;
57752;SDS011;43583;53.132;6.574;2023-12-29T12:28:26;7.78;;;0.88;;
57752;SDS011;43583;53.132;6.574;2023-12-29T12:31:04;5.93;;;0.55;;
57752;SDS011;43583;53.132;6.574;2023-12-29T12:33:30;6.47;;;0.40;;
57752;SDS011;43583;53.132;6.574;2023-12-29T12:36:00;10.75;;;1.50;;
57752;SDS011;43583;53.132;6.574;2023-12-29T12:38:25;6.75;;;0.45;;
57752;SDS011;43583;53.132;6.574;2023-12-29T12:40:52;10.35;;;0.50;;
57752;SDS011;43583;53.132;6.574;2023-12-29T12:43:18;5.70;;;0.40;;
57752;SDS011;43583;53.132;6.574;2023-12-29T12:45:47;9.88;;;0.80;;
57752;SDS011;43583;53.132;6.574;2023-12-29T12:48:22;8.05;;;1.75;;
57752;SDS011;43583;53.132;6.574;2023-12-29T12:50:54;8.07;;;0.65;;
57752;SDS011;43583;53.132;6.574;2023-12-29T12:53:21;6.75;;;1.08;;
57752;SDS011;43583;53.132;6.574;2023-12-29T12:55:48;8.90;;;0.98;;
57752;SDS011;43583;53.132;6.574;2023-12-29T12:58:20;5.93;;;0.95;;
57752;SDS011;43583;53.132;6.574;2023-12-29T13:00:46;6.38;;;0.68;;
57752;SDS011;43583;53.132;6.574;2023-12-29T13:03:13;7.85;;;1.55;;
57752;SDS011;43583;53.132;6.574;2023-12-29T13:05:40;5.70;;;0.43;;
57752;SDS011;43583;53.132;6.574;2023-12-29T13:08:06;7.25;;;0.50;;
57752;SDS011;43583;53.132;6.574;2023-12-29T13:10:32;7.93;;;1.15;;
57752;SDS011;43583;53.132;6.574;2023-12-29T13:12:58;10.75;;;0.65;;
57752;SDS011;43583;53.132;6.574;2023-12-29T13:15:23;7.28;;;0.30;;
57752;SDS011;43583;53.132;6.574;2023-12-29T13:17:50;8.38;;;0.50;;
57752;SDS011;43583;53.132;6.574;2023-12-29T13:20:18;9.82;;;0.40;;
57752;SDS011;43583;53.132;6.574;2023-12-29T13:22:53;6.53;;;0.40;;
57752;SDS011;43583;53.132;6.574;2023-12-29T13:25:25;12.88;;;2.00;;
57752;SDS011;43583;53.132;6.574;2023-12-29T13:35:40;8.48;;;1.30;;
57752;SDS011;43583;53.132;6.574;2023-12-29T13:38:24;10.15;;;0.80;;
57752;SDS011;43583;53.132;6.574;2023-12-29T13:41:07;11.13;;;1.00;;
57752;SDS011;43583;53.132;6.574;2023-12-29T13:43:35;16.90;;;1.25;;
57752;SDS011;43583;53.132;6.574;2023-12-29T13:46:07;8.68;;;0.93;;
57752;SDS011;43583;53.132;6.574;2023-12-29T13:48:34;7.63;;;0.77;;
57752;SDS011;43583;53.132;6.574;2023-12-29T13:51:00;9.43;;;1.23;;
57752;SDS011;43583;53.132;6.574;2023-12-29T13:53:25;10.18;;;1.67;;
57752;SDS011;43583;53.132;6.574;2023-12-29T13:55:52;12.25;;;0.95;;
57752;SDS011;43583;53.132;6.574;2023-12-29T13:58:18;8.75;;;0.55;;
57752;SDS011;43583;53.132;6.574;2023-12-29T14:00:43;12.32;;;0.47;;
57752;SDS011;43583;53.132;6.574;2023-12-29T14:03:31;5.47;;;0.38;;
57752;SDS011;43583;53.132;6.574;2023-12-29T14:06:00;4.80;;;0.73;;
57752;SDS011;43583;53.132;6.574;2023-12-29T14:08:32;6.97;;;0.52;;
57752;SDS011;43583;53.132;6.574;2023-12-29T14:11:07;9.05;;;0.50;;
57752;SDS011;43583;53.132;6.574;2023-12-29T14:13:34;5.10;;;0.50;;
57752;SDS011;43583;53.132;6.574;2023-12-29T14:16:00;4.57;;;0.30;;
57752;SDS011;43583;53.132;6.574;2023-12-29T14:26:38;7.68;;;0.88;;
57752;SDS011;43583;53.132;6.574;2023-12-29T14:29:12;3.58;;;1.15;;
57752;SDS011;43583;53.132;6.574;2023-12-29T14:31:40;6.95;;;0.45;;
57752;SDS011;43583;53.132;6.574;2023-12-29T14:34:07;8.52;;;1.00;;
57752;SDS011;43583;53.132;6.574;2023-12-29T14:36:33;15.98;;;1.20;;
57752;SDS011;43583;53.132;6.574;2023-12-29T14:39:00;7.63;;;1.02;;
57752;SDS011;43583;53.132;6.574;2023-12-29T14:41:27;8.65;;;0.93;;
57752;SDS011;43583;53.132;6.574;2023-12-29T14:43:53;8.50;;;0.50;;
57752;SDS011;43583;53.132;6.574;2023-12-29T14:46:19;9.85;;;1.30;;
57752;SDS011;43583;53.132;6.574;2023-12-29T14:48:45;8.82;;;0.75;;
57752;SDS011;43583;53.132;6.574;2023-12-29T14:51:24;10.77;;;0.73;;
57752;SDS011;43583;53.132;6.574;2023-12-29T14:53:50;7.72;;;0.50;;
57752;SDS011;43583;53.132;6.574;2023-12-29T14:56:15;9.75;;;1.13;;
57752;SDS011;43583;53.132;6.574;2023-12-29T14:58:41;6.50;;;0.30;;
57752;SDS011;43583;53.132;6.574;2023-12-29T15:01:08;7.78;;;1.73;;
57752;SDS011;43583;53.132;6.574;2023-12-29T15:03:34;5.43;;;0.40;;
57752;SDS011;43583;53.132;6.574;2023-12-29T15:06:00;6.55;;;0.30;;
57752;SDS011;43583;53.132;6.574;2023-12-29T15:08:27;4.28;;;0.70;;
57752;SDS011;43583;53.132;6.574;2023-12-29T15:10:59;6.45;;;0.77;;
57752;SDS011;43583;53.132;6.574;2023-12-29T15:13:28;7.05;;;0.30;;
57752;SDS011;43583;53.132;6.574;2023-12-29T15:15:55;9.30;;;0.60;;
57752;SDS011;43583;53.132;6.574;2023-12-29T15:18:22;3.13;;;0.30;;
57752;SDS011;43583;53.132;6.574;2023-12-29T15:20:48;8.55;;;0.30;;
57752;SDS011;43583;53.132;6.574;2023-12-29T15:23:14;11.07;;;0.50;;
57752;SDS011;43583;53.132;6.574;2023-12-29T15:25:40;7.40;;;0.68;;
57752;SDS011;43583;53.132;6.574;2023-12-29T15:28:07;7.03;;;0.38;;
57752;SDS011;43583;53.132;6.574;2023-12-29T15:30:33;6.30;;;0.30;;
57752;SDS011;43583;53.132;6.574;2023-12-29T15:32:58;5.88;;;0.68;;
57752;SDS011;43583;53.132;6.574;2023-12-29T15:35:24;13.82;;;1.50;;
57752;SDS011;43583;53.132;6.574;2023-12-29T15:37:49;4.50;;;0.82;;
57752;SDS011;43583;53.132;6.574;2023-12-29T15:40:15;8.63;;;0.98;;
57752;SDS011;43583;53.132;6.574;2023-12-29T15:42:40;8.13;;;0.85;;
57752;SDS011;43583;53.132;6.574;2023-12-29T15:45:06;4.45;;;0.35;;
57752;SDS011;43583;53.132;6.574;2023-12-29T15:47:32;5.70;;;0.45;;
57752;SDS011;43583;53.132;6.574;2023-12-29T15:49:57;11.30;;;0.60;;
57752;SDS011;43583;53.132;6.574;2023-12-29T15:52:23;6.60;;;1.25;;
57752;SDS011;43583;53.132;6.574;2023-12-29T15:54:51;5.63;;;0.75;;
57752;SDS011;43583;53.132;6.574;2023-12-29T15:57:17;8.05;;;0.88;;
57752;SDS011;43583;53.132;6.574;2023-12-29T15:59:43;9.70;;;0.95;;
57752;SDS011;43583;53.132;6.574;2023-12-29T16:02:09;11.55;;;1.00;;
57752;SDS011;43583;53.132;6.574;2023-12-29T16:04:36;7.20;;;0.43;;
57752;SDS011;43583;53.132;6.574;2023-12-29T16:07:01;4.00;;;0.68;;
57752;SDS011;43583;53.132;6.574;2023-12-29T16:09:27;7.75;;;0.70;;
57752;SDS011;43583;53.132;6.574;2023-12-29T16:11:53;9.55;;;0.60;;
57752;SDS011;43583;53.132;6.574;2023-12-29T16:14:20;11.98;;;0.50;;
57752;SDS011;43583;53.132;6.574;2023-12-29T16:16:48;9.57;;;0.35;;
57752;SDS011;43583;53.132;6.574;2023-12-29T16:19:14;9.18;;;0.50;;
57752;SDS011;43583;53.132;6.574;2023-12-29T16:21:40;12.60;;;0.98;;
57752;SDS011;43583;53.132;6.574;2023-12-29T16:24:07;5.07;;;0.50;;
57752;SDS011;43583;53.132;6.574;2023-12-29T16:26:37;11.52;;;0.90;;
57752;SDS011;43583;53.132;6.574;2023-12-29T16:29:05;8.02;;;0.47;;
57752;SDS011;43583;53.132;6.574;2023-12-29T16:31:31;5.60;;;0.68;;
57752;SDS011;43583;53.132;6.574;2023-12-29T16:33:58;9.88;;;0.80;;
57752;SDS011;43583;53.132;6.574;2023-12-29T16:36:24;6.25;;;1.30;;
57752;SDS011;43583;53.132;6.574;2023-12-29T16:38:50;6.05;;;0.30;;
57752;SDS011;43583;53.132;6.574;2023-12-29T16:41:18;8.30;;;0.47;;
57752;SDS011;43583;53.132;6.574;2023-12-29T16:43:46;6.43;;;0.77;;
57752;SDS011;43583;53.132;6.574;2023-12-29T16:46:12;3.88;;;0.85;;
57752;SDS011;43583;53.132;6.574;2023-12-29T16:48:38;8.15;;;0.63;;
57752;SDS011;43583;53.132;6.574;2023-12-29T16:51:04;4.28;;;0.77;;
57752;SDS011;43583;53.132;6.574;2023-12-29T16:53:33;8.25;;;0.30;;
57752;SDS011;43583;53.132;6.574;2023-12-29T16:56:00;7.30;;;0.93;;
57752;SDS011;43583;53.132;6.574;2023-12-29T16:58:25;3.22;;;0.28;;
57752;SDS011;43583;53.132;6.574;2023-12-29T17:00:51;5.93;;;0.20;;
57752;SDS011;43583;53.132;6.574;2023-12-29T17:03:19;3.78;;;0.20;;